sensor_id;sensor_type;location;lat;lon;timestamp;P1;durP1;ratioP1;P2;durP2;ratioP2
38693;SDS011;24447;43.460;25.744;2023-02-07T00:02:21;55.42;;;22.40;;
38693;SDS011;24447;43.460;25.744;2023-02-07T00:04:47;56.47;;;21.00;;
38693;SDS011;24447;43.460;25.744;2023-02-07T00:07:13;83.97;;;31.25;;
38693;SDS011;24447;43.460;25.744;2023-02-07T00:09:39;70.80;;;26.20;;
38693;SDS011;24447;43.460;25.744;2023-02-07T00:12:05;67.47;;;29.20;;
38693;SDS011;24447;43.460;25.744;2023-02-07T00:14:31;71.40;;;27.50;;
38693;SDS011;24447;43.460;25.744;2023-02-07T00:16:57;84.55;;;33.13;;
38693;SDS011;24447;43.460;25.744;2023-02-07T00:19:23;69.55;;;29.85;;
38693;SDS011;24447;43.460;25.744;2023-02-07T00:21:49;76.45;;;28.77;;
38693;SDS011;24447;43.460;25.744;2023-02-07T00:24:15;62.08;;;25.27;;
38693;SDS011;24447;43.460;25.744;2023-02-07T00:26:41;58.92;;;21.80;;
38693;SDS011;24447;43.460;25.744;2023-02-07T00:29:07;48.05;;;20.25;;
38693;SDS011;24447;43.460;25.744;2023-02-07T00:31:33;52.55;;;18.10;;
38693;SDS011;24447;43.460;25.744;2023-02-07T00:34:01;49.00;;;17.17;;
38693;SDS011;24447;43.460;25.744;2023-02-07T00:36:28;34.83;;;16.02;;
38693;SDS011;24447;43.460;25.744;2023-02-07T00:38:56;43.33;;;17.00;;
38693;SDS011;24447;43.460;25.744;2023-02-07T00:41:23;33.53;;;13.20;;
38693;SDS011;24447;43.460;25.744;2023-02-07T00:43:50;45.38;;;15.63;;
38693;SDS011;24447;43.460;25.744;2023-02-07T00:46:16;40.33;;;15.93;;
38693;SDS011;24447;43.460;25.744;2023-02-07T00:48:42;44.25;;;17.00;;
38693;SDS011;24447;43.460;25.744;2023-02-07T00:51:09;45.80;;;16.50;;
38693;SDS011;24447;43.460;25.744;2023-02-07T00:53:37;41.45;;;15.50;;
38693;SDS011;24447;43.460;25.744;2023-02-07T00:56:04;56.25;;;23.80;;
38693;SDS011;24447;43.460;25.744;2023-02-07T00:58:30;45.00;;;14.77;;
38693;SDS011;24447;43.460;25.744;2023-02-07T01:00:56;37.00;;;15.68;;
38693;SDS011;24447;43.460;25.744;2023-02-07T01:03:23;38.42;;;16.27;;
38693;SDS011;24447;43.460;25.744;2023-02-07T01:05:49;38.30;;;13.63;;
38693;SDS011;24447;43.460;25.744;2023-02-07T01:08:15;39.28;;;16.85;;
38693;SDS011;24447;43.460;25.744;2023-02-07T01:10:41;49.75;;;16.77;;
38693;SDS011;24447;43.460;25.744;2023-02-07T01:13:09;43.65;;;17.65;;
38693;SDS011;24447;43.460;25.744;2023-02-07T01:15:36;41.72;;;18.10;;
38693;SDS011;24447;43.460;25.744;2023-02-07T01:18:03;44.92;;;18.50;;
38693;SDS011;24447;43.460;25.744;2023-02-07T01:20:29;43.30;;;17.25;;
38693;SDS011;24447;43.460;25.744;2023-02-07T01:22:55;37.88;;;15.48;;
38693;SDS011;24447;43.460;25.744;2023-02-07T01:25:21;41.17;;;15.18;;
38693;SDS011;24447;43.460;25.744;2023-02-07T01:27:47;48.95;;;16.83;;
38693;SDS011;24447;43.460;25.744;2023-02-07T01:30:13;54.33;;;19.98;;
38693;SDS011;24447;43.460;25.744;2023-02-07T01:32:39;62.70;;;25.23;;
38693;SDS011;24447;43.460;25.744;2023-02-07T01:35:05;55.15;;;24.10;;
38693;SDS011;24447;43.460;25.744;2023-02-07T01:37:31;54.40;;;23.02;;
38693;SDS011;24447;43.460;25.744;2023-02-07T01:39:58;45.35;;;17.35;;
38693;SDS011;24447;43.460;25.744;2023-02-07T01:42:25;39.92;;;16.52;;
38693;SDS011;24447;43.460;25.744;2023-02-07T01:47:20;52.15;;;21.17;;
38693;SDS011;24447;43.460;25.744;2023-02-07T01:49:47;45.63;;;17.60;;
38693;SDS011;24447;43.460;25.744;2023-02-07T01:52:18;47.40;;;15.65;;
38693;SDS011;24447;43.460;25.744;2023-02-07T01:54:49;41.05;;;15.98;;
38693;SDS011;24447;43.460;25.744;2023-02-07T01:57:16;41.90;;;17.88;;
38693;SDS011;24447;43.460;25.744;2023-02-07T01:59:45;34.03;;;13.80;;
38693;SDS011;24447;43.460;25.744;2023-02-07T02:02:13;46.03;;;18.00;;
38693;SDS011;24447;43.460;25.744;2023-02-07T02:04:40;50.72;;;15.85;;
38693;SDS011;24447;43.460;25.744;2023-02-07T02:07:07;48.35;;;18.00;;
38693;SDS011;24447;43.460;25.744;2023-02-07T02:09:34;47.22;;;18.92;;
38693;SDS011;24447;43.460;25.744;2023-02-07T02:23:19;68.60;;;25.23;;
38693;SDS011;24447;43.460;25.744;2023-02-07T02:28:52;38.90;;;16.77;;
38693;SDS011;24447;43.460;25.744;2023-02-07T02:34:13;37.45;;;14.57;;
38693;SDS011;24447;43.460;25.744;2023-02-07T02:41:59;36.95;;;14.65;;
38693;SDS011;24447;43.460;25.744;2023-02-07T02:44:33;34.45;;;13.05;;
38693;SDS011;24447;43.460;25.744;2023-02-07T02:47:01;39.90;;;15.20;;
38693;SDS011;24447;43.460;25.744;2023-02-07T02:49:28;28.38;;;11.35;;
38693;SDS011;24447;43.460;25.744;2023-02-07T02:51:55;34.83;;;14.27;;
38693;SDS011;24447;43.460;25.744;2023-02-07T02:54:25;31.85;;;11.65;;
38693;SDS011;24447;43.460;25.744;2023-02-07T02:56:59;37.05;;;12.30;;
38693;SDS011;24447;43.460;25.744;2023-02-07T02:59:55;35.10;;;13.32;;
38693;SDS011;24447;43.460;25.744;2023-02-07T03:05:52;27.58;;;9.98;;
38693;SDS011;24447;43.460;25.744;2023-02-07T03:08:27;28.95;;;10.05;;
38693;SDS011;24447;43.460;25.744;2023-02-07T03:19:55;28.80;;;10.32;;
38693;SDS011;24447;43.460;25.744;2023-02-07T03:22:26;40.65;;;14.23;;
38693;SDS011;24447;43.460;25.744;2023-02-07T03:24:54;41.22;;;13.80;;
38693;SDS011;24447;43.460;25.744;2023-02-07T03:27:21;43.35;;;15.52;;
38693;SDS011;24447;43.460;25.744;2023-02-07T03:29:49;41.53;;;16.90;;
38693;SDS011;24447;43.460;25.744;2023-02-07T03:32:22;46.40;;;17.50;;
38693;SDS011;24447;43.460;25.744;2023-02-07T03:34:51;43.53;;;16.05;;
38693;SDS011;24447;43.460;25.744;2023-02-07T03:39:50;22.00;;;8.57;;
38693;SDS011;24447;43.460;25.744;2023-02-07T03:45:15;27.88;;;10.07;;
38693;SDS011;24447;43.460;25.744;2023-02-07T03:47:43;24.27;;;8.80;;
38693;SDS011;24447;43.460;25.744;2023-02-07T03:50:09;34.67;;;11.13;;
38693;SDS011;24447;43.460;25.744;2023-02-07T03:52:35;33.63;;;11.87;;
38693;SDS011;24447;43.460;25.744;2023-02-07T03:55:01;26.98;;;9.25;;
38693;SDS011;24447;43.460;25.744;2023-02-07T03:57:28;31.33;;;9.32;;
38693;SDS011;24447;43.460;25.744;2023-02-07T03:59:53;23.95;;;7.97;;
38693;SDS011;24447;43.460;25.744;2023-02-07T04:02:19;31.02;;;9.73;;
38693;SDS011;24447;43.460;25.744;2023-02-07T04:04:45;25.95;;;7.90;;
38693;SDS011;24447;43.460;25.744;2023-02-07T04:07:11;31.20;;;10.90;;
38693;SDS011;24447;43.460;25.744;2023-02-07T04:09:37;27.85;;;10.02;;
38693;SDS011;24447;43.460;25.744;2023-02-07T04:12:03;37.15;;;10.68;;
38693;SDS011;24447;43.460;25.744;2023-02-07T04:14:29;40.67;;;11.18;;
38693;SDS011;24447;43.460;25.744;2023-02-07T04:16:55;97.57;;;33.13;;
38693;SDS011;24447;43.460;25.744;2023-02-07T04:19:21;135.63;;;40.78;;
38693;SDS011;24447;43.460;25.744;2023-02-07T04:21:47;67.70;;;25.55;;
38693;SDS011;24447;43.460;25.744;2023-02-07T04:24:13;117.78;;;36.15;;
38693;SDS011;24447;43.460;25.744;2023-02-07T04:26:39;136.77;;;39.30;;
38693;SDS011;24447;43.460;25.744;2023-02-07T04:29:05;115.95;;;38.13;;
38693;SDS011;24447;43.460;25.744;2023-02-07T04:31:31;141.93;;;42.72;;
38693;SDS011;24447;43.460;25.744;2023-02-07T04:33:57;103.50;;;30.25;;
38693;SDS011;24447;43.460;25.744;2023-02-07T04:36:23;99.20;;;33.17;;
38693;SDS011;24447;43.460;25.744;2023-02-07T04:38:49;107.00;;;30.15;;
38693;SDS011;24447;43.460;25.744;2023-02-07T04:41:15;73.72;;;25.10;;
38693;SDS011;24447;43.460;25.744;2023-02-07T04:43:41;55.45;;;19.13;;
38693;SDS011;24447;43.460;25.744;2023-02-07T04:46:07;40.55;;;13.73;;
38693;SDS011;24447;43.460;25.744;2023-02-07T04:48:34;37.38;;;12.48;;
38693;SDS011;24447;43.460;25.744;2023-02-07T04:51:04;40.65;;;13.20;;
38693;SDS011;24447;43.460;25.744;2023-02-07T04:53:31;34.38;;;10.77;;
38693;SDS011;24447;43.460;25.744;2023-02-07T04:55:57;33.60;;;9.73;;
38693;SDS011;24447;43.460;25.744;2023-02-07T04:58:23;29.60;;;10.18;;
38693;SDS011;24447;43.460;25.744;2023-02-07T05:00:51;33.50;;;10.13;;
38693;SDS011;24447;43.460;25.744;2023-02-07T05:03:17;27.52;;;8.73;;
38693;SDS011;24447;43.460;25.744;2023-02-07T05:05:43;38.72;;;12.82;;
38693;SDS011;24447;43.460;25.744;2023-02-07T05:08:10;26.63;;;8.82;;
38693;SDS011;24447;43.460;25.744;2023-02-07T05:10:37;33.25;;;11.27;;
38693;SDS011;24447;43.460;25.744;2023-02-07T05:13:03;45.58;;;17.20;;
38693;SDS011;24447;43.460;25.744;2023-02-07T05:15:30;62.40;;;23.00;;
38693;SDS011;24447;43.460;25.744;2023-02-07T05:17:56;33.90;;;12.35;;
38693;SDS011;24447;43.460;25.744;2023-02-07T05:20:22;44.88;;;17.33;;
38693;SDS011;24447;43.460;25.744;2023-02-07T05:22:49;44.55;;;15.57;;
38693;SDS011;24447;43.460;25.744;2023-02-07T05:25:16;30.83;;;10.30;;
38693;SDS011;24447;43.460;25.744;2023-02-07T05:27:42;42.97;;;15.73;;
38693;SDS011;24447;43.460;25.744;2023-02-07T05:30:08;37.28;;;12.15;;
38693;SDS011;24447;43.460;25.744;2023-02-07T05:32:34;36.50;;;12.38;;
38693;SDS011;24447;43.460;25.744;2023-02-07T05:35:19;36.78;;;12.88;;
38693;SDS011;24447;43.460;25.744;2023-02-07T05:37:45;28.23;;;10.48;;
38693;SDS011;24447;43.460;25.744;2023-02-07T05:40:11;31.35;;;12.80;;
38693;SDS011;24447;43.460;25.744;2023-02-07T05:42:37;33.05;;;9.57;;
38693;SDS011;24447;43.460;25.744;2023-02-07T05:45:04;25.83;;;9.18;;
38693;SDS011;24447;43.460;25.744;2023-02-07T05:47:31;33.00;;;11.20;;
38693;SDS011;24447;43.460;25.744;2023-02-07T05:49:58;31.23;;;11.07;;
38693;SDS011;24447;43.460;25.744;2023-02-07T05:52:24;21.45;;;8.30;;
38693;SDS011;24447;43.460;25.744;2023-02-07T05:54:51;23.80;;;8.55;;
38693;SDS011;24447;43.460;25.744;2023-02-07T05:57:17;27.35;;;8.55;;
38693;SDS011;24447;43.460;25.744;2023-02-07T05:59:43;49.90;;;19.92;;
38693;SDS011;24447;43.460;25.744;2023-02-07T06:02:09;31.02;;;11.98;;
38693;SDS011;24447;43.460;25.744;2023-02-07T06:04:35;26.70;;;10.38;;
38693;SDS011;24447;43.460;25.744;2023-02-07T06:07:01;28.00;;;10.68;;
38693;SDS011;24447;43.460;25.744;2023-02-07T06:09:27;24.90;;;9.35;;
38693;SDS011;24447;43.460;25.744;2023-02-07T06:11:53;32.50;;;10.98;;
38693;SDS011;24447;43.460;25.744;2023-02-07T06:14:20;23.80;;;8.00;;
38693;SDS011;24447;43.460;25.744;2023-02-07T06:16:46;26.33;;;9.55;;
38693;SDS011;24447;43.460;25.744;2023-02-07T06:19:12;19.90;;;7.72;;
38693;SDS011;24447;43.460;25.744;2023-02-07T06:21:38;29.38;;;8.93;;
38693;SDS011;24447;43.460;25.744;2023-02-07T06:24:05;26.10;;;9.40;;
38693;SDS011;24447;43.460;25.744;2023-02-07T06:26:32;20.92;;;7.30;;
38693;SDS011;24447;43.460;25.744;2023-02-07T06:28:58;23.75;;;8.10;;
38693;SDS011;24447;43.460;25.744;2023-02-07T06:31:24;27.33;;;10.98;;
38693;SDS011;24447;43.460;25.744;2023-02-07T06:33:50;36.78;;;12.80;;
38693;SDS011;24447;43.460;25.744;2023-02-07T06:36:16;36.92;;;14.15;;
38693;SDS011;24447;43.460;25.744;2023-02-07T06:38:42;47.25;;;20.38;;
38693;SDS011;24447;43.460;25.744;2023-02-07T06:41:08;43.33;;;17.23;;
38693;SDS011;24447;43.460;25.744;2023-02-07T06:43:38;33.03;;;12.98;;
38693;SDS011;24447;43.460;25.744;2023-02-07T06:46:04;29.25;;;10.95;;
38693;SDS011;24447;43.460;25.744;2023-02-07T06:48:31;27.88;;;11.93;;
38693;SDS011;24447;43.460;25.744;2023-02-07T06:50:57;29.65;;;11.30;;
38693;SDS011;24447;43.460;25.744;2023-02-07T06:53:22;30.73;;;13.05;;
38693;SDS011;24447;43.460;25.744;2023-02-07T06:55:48;30.38;;;10.65;;
38693;SDS011;24447;43.460;25.744;2023-02-07T06:58:14;23.52;;;9.18;;
38693;SDS011;24447;43.460;25.744;2023-02-07T07:00:40;35.03;;;9.93;;
38693;SDS011;24447;43.460;25.744;2023-02-07T07:03:08;29.20;;;9.57;;
38693;SDS011;24447;43.460;25.744;2023-02-07T07:05:39;32.08;;;13.52;;
38693;SDS011;24447;43.460;25.744;2023-02-07T07:08:06;36.88;;;15.10;;
38693;SDS011;24447;43.460;25.744;2023-02-07T07:10:32;24.77;;;11.57;;
38693;SDS011;24447;43.460;25.744;2023-02-07T07:12:58;23.92;;;8.80;;
38693;SDS011;24447;43.460;25.744;2023-02-07T07:15:24;23.83;;;9.55;;
38693;SDS011;24447;43.460;25.744;2023-02-07T07:17:50;24.50;;;8.63;;
38693;SDS011;24447;43.460;25.744;2023-02-07T07:20:16;26.30;;;10.48;;
38693;SDS011;24447;43.460;25.744;2023-02-07T07:22:45;21.77;;;8.68;;
38693;SDS011;24447;43.460;25.744;2023-02-07T07:25:11;27.98;;;9.52;;
38693;SDS011;24447;43.460;25.744;2023-02-07T07:27:37;40.08;;;16.25;;
38693;SDS011;24447;43.460;25.744;2023-02-07T07:30:03;37.72;;;15.60;;
38693;SDS011;24447;43.460;25.744;2023-02-07T07:32:29;42.47;;;17.92;;
38693;SDS011;24447;43.460;25.744;2023-02-07T07:34:56;35.55;;;16.65;;
38693;SDS011;24447;43.460;25.744;2023-02-07T07:37:22;36.15;;;12.85;;
38693;SDS011;24447;43.460;25.744;2023-02-07T07:39:48;30.38;;;11.35;;
38693;SDS011;24447;43.460;25.744;2023-02-07T07:42:14;38.90;;;15.60;;
38693;SDS011;24447;43.460;25.744;2023-02-07T07:44:40;62.08;;;23.98;;
38693;SDS011;24447;43.460;25.744;2023-02-07T07:47:05;68.22;;;30.13;;
38693;SDS011;24447;43.460;25.744;2023-02-07T07:49:31;68.60;;;29.55;;
38693;SDS011;24447;43.460;25.744;2023-02-07T07:51:57;72.00;;;31.05;;
38693;SDS011;24447;43.460;25.744;2023-02-07T07:54:23;50.10;;;21.92;;
38693;SDS011;24447;43.460;25.744;2023-02-07T07:56:49;85.53;;;32.95;;
38693;SDS011;24447;43.460;25.744;2023-02-07T07:59:15;72.80;;;30.17;;
38693;SDS011;24447;43.460;25.744;2023-02-07T08:01:41;69.40;;;33.05;;
38693;SDS011;24447;43.460;25.744;2023-02-07T08:04:07;66.05;;;31.80;;
38693;SDS011;24447;43.460;25.744;2023-02-07T08:06:33;43.85;;;19.70;;
38693;SDS011;24447;43.460;25.744;2023-02-07T08:08:59;35.38;;;16.02;;
38693;SDS011;24447;43.460;25.744;2023-02-07T08:11:25;29.25;;;14.15;;
38693;SDS011;24447;43.460;25.744;2023-02-07T08:13:51;30.58;;;11.70;;
38693;SDS011;24447;43.460;25.744;2023-02-07T08:16:17;24.05;;;9.93;;
38693;SDS011;24447;43.460;25.744;2023-02-07T08:18:43;20.98;;;9.40;;
38693;SDS011;24447;43.460;25.744;2023-02-07T08:21:09;38.05;;;15.75;;
38693;SDS011;24447;43.460;25.744;2023-02-07T08:23:35;27.85;;;13.32;;
38693;SDS011;24447;43.460;25.744;2023-02-07T08:26:01;25.38;;;10.65;;
38693;SDS011;24447;43.460;25.744;2023-02-07T08:28:28;33.03;;;14.60;;
38693;SDS011;24447;43.460;25.744;2023-02-07T08:30:58;30.23;;;12.00;;
38693;SDS011;24447;43.460;25.744;2023-02-07T08:33:25;31.88;;;13.43;;
38693;SDS011;24447;43.460;25.744;2023-02-07T08:35:51;32.25;;;12.65;;
38693;SDS011;24447;43.460;25.744;2023-02-07T08:38:17;31.85;;;12.88;;
38693;SDS011;24447;43.460;25.744;2023-02-07T08:40:43;30.70;;;12.68;;
38693;SDS011;24447;43.460;25.744;2023-02-07T08:43:10;54.50;;;20.75;;
38693;SDS011;24447;43.460;25.744;2023-02-07T08:45:41;51.75;;;20.58;;
38693;SDS011;24447;43.460;25.744;2023-02-07T08:48:11;38.50;;;15.95;;
38693;SDS011;24447;43.460;25.744;2023-02-07T08:50:37;45.05;;;17.23;;
38693;SDS011;24447;43.460;25.744;2023-02-07T08:53:03;32.55;;;14.88;;
38693;SDS011;24447;43.460;25.744;2023-02-07T08:55:29;29.33;;;11.68;;
38693;SDS011;24447;43.460;25.744;2023-02-07T08:57:55;37.17;;;15.40;;
38693;SDS011;24447;43.460;25.744;2023-02-07T09:00:21;32.38;;;10.77;;
38693;SDS011;24447;43.460;25.744;2023-02-07T09:02:47;33.33;;;13.65;;
38693;SDS011;24447;43.460;25.744;2023-02-07T09:05:13;43.97;;;15.48;;
38693;SDS011;24447;43.460;25.744;2023-02-07T09:07:39;32.90;;;12.93;;
38693;SDS011;24447;43.460;25.744;2023-02-07T09:10:06;26.42;;;10.25;;
38693;SDS011;24447;43.460;25.744;2023-02-07T09:12:33;24.45;;;9.93;;
38693;SDS011;24447;43.460;25.744;2023-02-07T09:15:00;27.95;;;9.48;;
38693;SDS011;24447;43.460;25.744;2023-02-07T09:17:26;39.60;;;14.50;;
38693;SDS011;24447;43.460;25.744;2023-02-07T09:19:52;51.42;;;16.52;;
38693;SDS011;24447;43.460;25.744;2023-02-07T09:22:18;32.40;;;12.70;;
38693;SDS011;24447;43.460;25.744;2023-02-07T09:24:44;30.52;;;11.40;;
38693;SDS011;24447;43.460;25.744;2023-02-07T09:27:10;50.05;;;16.63;;
38693;SDS011;24447;43.460;25.744;2023-02-07T09:29:36;42.35;;;15.93;;
38693;SDS011;24447;43.460;25.744;2023-02-07T09:32:02;31.17;;;13.10;;
38693;SDS011;24447;43.460;25.744;2023-02-07T09:34:28;23.83;;;10.00;;
38693;SDS011;24447;43.460;25.744;2023-02-07T09:36:57;36.45;;;14.43;;
38693;SDS011;24447;43.460;25.744;2023-02-07T09:39:23;28.63;;;10.05;;
38693;SDS011;24447;43.460;25.744;2023-02-07T09:47:03;30.15;;;11.30;;
38693;SDS011;24447;43.460;25.744;2023-02-07T09:49:45;26.67;;;8.77;;
38693;SDS011;24447;43.460;25.744;2023-02-07T09:52:16;25.42;;;8.98;;
38693;SDS011;24447;43.460;25.744;2023-02-07T09:54:48;26.90;;;10.07;;
38693;SDS011;24447;43.460;25.744;2023-02-07T09:57:20;26.20;;;9.63;;
38693;SDS011;24447;43.460;25.744;2023-02-07T10:05:05;54.20;;;21.60;;
38693;SDS011;24447;43.460;25.744;2023-02-07T10:07:40;43.72;;;15.52;;
38693;SDS011;24447;43.460;25.744;2023-02-07T10:10:15;30.58;;;12.10;;
38693;SDS011;24447;43.460;25.744;2023-02-07T10:12:48;34.30;;;13.45;;
38693;SDS011;24447;43.460;25.744;2023-02-07T10:18:09;26.25;;;9.63;;
38693;SDS011;24447;43.460;25.744;2023-02-07T10:20:54;24.30;;;9.88;;
38693;SDS011;24447;43.460;25.744;2023-02-07T10:26:22;25.38;;;9.35;;
38693;SDS011;24447;43.460;25.744;2023-02-07T10:31:55;27.45;;;9.55;;
38693;SDS011;24447;43.460;25.744;2023-02-07T10:34:27;20.95;;;6.93;;
38693;SDS011;24447;43.460;25.744;2023-02-07T10:36:55;28.92;;;9.35;;
38693;SDS011;24447;43.460;25.744;2023-02-07T10:39:28;20.17;;;7.95;;
38693;SDS011;24447;43.460;25.744;2023-02-07T10:41:57;21.23;;;7.70;;
38693;SDS011;24447;43.460;25.744;2023-02-07T10:44:24;16.95;;;7.03;;
38693;SDS011;24447;43.460;25.744;2023-02-07T10:47:02;19.45;;;6.00;;
38693;SDS011;24447;43.460;25.744;2023-02-07T10:49:32;21.52;;;8.23;;
38693;SDS011;24447;43.460;25.744;2023-02-07T10:55:05;21.80;;;7.88;;
38693;SDS011;24447;43.460;25.744;2023-02-07T10:57:32;22.40;;;7.75;;
38693;SDS011;24447;43.460;25.744;2023-02-07T10:59:59;21.00;;;7.30;;
38693;SDS011;24447;43.460;25.744;2023-02-07T11:05:14;24.63;;;9.10;;
38693;SDS011;24447;43.460;25.744;2023-02-07T11:13:04;20.50;;;8.23;;
38693;SDS011;24447;43.460;25.744;2023-02-07T11:20:50;18.48;;;7.53;;
38693;SDS011;24447;43.460;25.744;2023-02-07T11:23:20;15.60;;;6.15;;
38693;SDS011;24447;43.460;25.744;2023-02-07T11:25:46;15.10;;;5.82;;
38693;SDS011;24447;43.460;25.744;2023-02-07T11:30:54;17.65;;;7.07;;
38693;SDS011;24447;43.460;25.744;2023-02-07T11:33:24;18.20;;;8.35;;
38693;SDS011;24447;43.460;25.744;2023-02-07T11:38:40;16.98;;;6.35;;
38693;SDS011;24447;43.460;25.744;2023-02-07T11:41:15;15.00;;;6.07;;
38693;SDS011;24447;43.460;25.744;2023-02-07T11:43:50;16.45;;;6.78;;
38693;SDS011;24447;43.460;25.744;2023-02-07T11:46:21;18.35;;;6.38;;
38693;SDS011;24447;43.460;25.744;2023-02-07T11:48:49;21.60;;;7.97;;
38693;SDS011;24447;43.460;25.744;2023-02-07T11:51:18;15.48;;;6.22;;
38693;SDS011;24447;43.460;25.744;2023-02-07T11:53:54;14.35;;;6.47;;
38693;SDS011;24447;43.460;25.744;2023-02-07T11:56:23;21.75;;;7.57;;
38693;SDS011;24447;43.460;25.744;2023-02-07T11:58:49;15.80;;;6.38;;
38693;SDS011;24447;43.460;25.744;2023-02-07T12:01:17;26.63;;;9.55;;
38693;SDS011;24447;43.460;25.744;2023-02-07T12:03:46;17.92;;;6.82;;
38693;SDS011;24447;43.460;25.744;2023-02-07T12:06:14;17.77;;;6.70;;
38693;SDS011;24447;43.460;25.744;2023-02-07T12:08:41;14.07;;;5.80;;
38693;SDS011;24447;43.460;25.744;2023-02-07T12:11:16;23.35;;;8.88;;
38693;SDS011;24447;43.460;25.744;2023-02-07T12:13:52;24.95;;;10.75;;
38693;SDS011;24447;43.460;25.744;2023-02-07T12:16:22;24.42;;;10.18;;
38693;SDS011;24447;43.460;25.744;2023-02-07T12:18:54;55.20;;;17.20;;
38693;SDS011;24447;43.460;25.744;2023-02-07T12:22:15;27.77;;;7.50;;
38693;SDS011;24447;43.460;25.744;2023-02-07T12:24:48;16.73;;;5.80;;
38693;SDS011;24447;43.460;25.744;2023-02-07T12:27:19;13.00;;;5.75;;
38693;SDS011;24447;43.460;25.744;2023-02-07T12:32:19;125.72;;;47.80;;
38693;SDS011;24447;43.460;25.744;2023-02-07T12:51:27;27.13;;;11.23;;
38693;SDS011;24447;43.460;25.744;2023-02-07T12:54:24;26.30;;;9.88;;
38693;SDS011;24447;43.460;25.744;2023-02-07T12:57:18;21.02;;;7.75;;
38693;SDS011;24447;43.460;25.744;2023-02-07T13:02:52;36.08;;;13.02;;
38693;SDS011;24447;43.460;25.744;2023-02-07T13:05:40;22.30;;;6.82;;
38693;SDS011;24447;43.460;25.744;2023-02-07T13:11:06;27.58;;;10.93;;
38693;SDS011;24447;43.460;25.744;2023-02-07T13:16:41;20.73;;;6.88;;
38693;SDS011;24447;43.460;25.744;2023-02-07T13:19:24;29.08;;;10.50;;
38693;SDS011;24447;43.460;25.744;2023-02-07T13:22:04;43.83;;;16.00;;
38693;SDS011;24447;43.460;25.744;2023-02-07T13:24:36;22.67;;;8.20;;
38693;SDS011;24447;43.460;25.744;2023-02-07T13:27:06;18.23;;;7.15;;
38693;SDS011;24447;43.460;25.744;2023-02-07T13:29:35;24.90;;;10.23;;
38693;SDS011;24447;43.460;25.744;2023-02-07T13:32:04;21.52;;;8.85;;
38693;SDS011;24447;43.460;25.744;2023-02-07T13:34:41;38.75;;;13.02;;
38693;SDS011;24447;43.460;25.744;2023-02-07T13:37:12;31.38;;;10.93;;
38693;SDS011;24447;43.460;25.744;2023-02-07T13:39:47;28.30;;;11.70;;
38693;SDS011;24447;43.460;25.744;2023-02-07T13:50:44;24.63;;;9.10;;
38693;SDS011;24447;43.460;25.744;2023-02-07T13:56:09;25.00;;;9.43;;
38693;SDS011;24447;43.460;25.744;2023-02-07T13:58:57;23.15;;;7.95;;
38693;SDS011;24447;43.460;25.744;2023-02-07T14:01:49;24.85;;;9.10;;
38693;SDS011;24447;43.460;25.744;2023-02-07T14:04:17;24.63;;;8.45;;
38693;SDS011;24447;43.460;25.744;2023-02-07T14:20:00;25.10;;;8.95;;
38693;SDS011;24447;43.460;25.744;2023-02-07T14:22:25;36.97;;;11.88;;
38693;SDS011;24447;43.460;25.744;2023-02-07T14:27:33;25.55;;;11.43;;
38693;SDS011;24447;43.460;25.744;2023-02-07T14:32:26;53.85;;;17.98;;
38693;SDS011;24447;43.460;25.744;2023-02-07T14:40:20;26.77;;;12.38;;
38693;SDS011;24447;43.460;25.744;2023-02-07T14:43:05;24.80;;;10.02;;
38693;SDS011;24447;43.460;25.744;2023-02-07T14:45:44;29.55;;;12.10;;
38693;SDS011;24447;43.460;25.744;2023-02-07T14:48:39;40.10;;;14.88;;
38693;SDS011;24447;43.460;25.744;2023-02-07T14:51:13;38.55;;;13.82;;
38693;SDS011;24447;43.460;25.744;2023-02-07T14:54:01;35.58;;;14.43;;
38693;SDS011;24447;43.460;25.744;2023-02-07T15:05:18;33.53;;;13.48;;
38693;SDS011;24447;43.460;25.744;2023-02-07T15:07:46;34.97;;;14.07;;
38693;SDS011;24447;43.460;25.744;2023-02-07T15:10:20;39.08;;;14.90;;
38693;SDS011;24447;43.460;25.744;2023-02-07T15:12:48;37.28;;;13.88;;
38693;SDS011;24447;43.460;25.744;2023-02-07T15:15:17;41.95;;;13.05;;
38693;SDS011;24447;43.460;25.744;2023-02-07T15:17:47;32.20;;;10.57;;
38693;SDS011;24447;43.460;25.744;2023-02-07T15:20:15;35.28;;;14.20;;
38693;SDS011;24447;43.460;25.744;2023-02-07T15:25:12;28.13;;;10.65;;
38693;SDS011;24447;43.460;25.744;2023-02-07T15:27:38;26.30;;;9.82;;
38693;SDS011;24447;43.460;25.744;2023-02-07T15:30:05;32.13;;;12.48;;
38693;SDS011;24447;43.460;25.744;2023-02-07T15:32:33;32.78;;;13.40;;
38693;SDS011;24447;43.460;25.744;2023-02-07T15:38:13;38.97;;;16.67;;
38693;SDS011;24447;43.460;25.744;2023-02-07T15:40:42;36.88;;;17.67;;
38693;SDS011;24447;43.460;25.744;2023-02-07T15:43:25;37.28;;;16.58;;
38693;SDS011;24447;43.460;25.744;2023-02-07T15:45:57;35.30;;;15.90;;
38693;SDS011;24447;43.460;25.744;2023-02-07T15:48:29;36.83;;;14.60;;
38693;SDS011;24447;43.460;25.744;2023-02-07T15:50:55;31.48;;;12.50;;
38693;SDS011;24447;43.460;25.744;2023-02-07T15:53:24;31.92;;;12.43;;
38693;SDS011;24447;43.460;25.744;2023-02-07T15:55:52;35.03;;;10.48;;
38693;SDS011;24447;43.460;25.744;2023-02-07T16:01:00;20.27;;;8.10;;
38693;SDS011;24447;43.460;25.744;2023-02-07T16:03:36;25.98;;;10.63;;
38693;SDS011;24447;43.460;25.744;2023-02-07T16:08:46;22.98;;;8.45;;
38693;SDS011;24447;43.460;25.744;2023-02-07T16:16:24;14.88;;;5.53;;
38693;SDS011;24447;43.460;25.744;2023-02-07T16:19:02;19.98;;;5.78;;
38693;SDS011;24447;43.460;25.744;2023-02-07T16:21:30;17.17;;;5.93;;
38693;SDS011;24447;43.460;25.744;2023-02-07T16:24:03;21.90;;;6.43;;
38693;SDS011;24447;43.460;25.744;2023-02-07T16:26:31;19.85;;;7.28;;
38693;SDS011;24447;43.460;25.744;2023-02-07T16:28:57;21.85;;;7.97;;
38693;SDS011;24447;43.460;25.744;2023-02-07T16:31:23;16.23;;;5.72;;
38693;SDS011;24447;43.460;25.744;2023-02-07T16:33:49;22.08;;;7.32;;
38693;SDS011;24447;43.460;25.744;2023-02-07T16:36:16;20.30;;;6.55;;
38693;SDS011;24447;43.460;25.744;2023-02-07T16:38:42;18.67;;;7.38;;
38693;SDS011;24447;43.460;25.744;2023-02-07T16:41:12;26.80;;;8.07;;
38693;SDS011;24447;43.460;25.744;2023-02-07T16:43:52;24.23;;;9.10;;
38693;SDS011;24447;43.460;25.744;2023-02-07T16:46:18;20.42;;;6.65;;
38693;SDS011;24447;43.460;25.744;2023-02-07T16:48:44;22.48;;;7.57;;
38693;SDS011;24447;43.460;25.744;2023-02-07T16:51:10;20.00;;;7.60;;
38693;SDS011;24447;43.460;25.744;2023-02-07T16:53:36;21.48;;;8.60;;
38693;SDS011;24447;43.460;25.744;2023-02-07T16:56:02;25.58;;;8.32;;
38693;SDS011;24447;43.460;25.744;2023-02-07T16:58:30;25.90;;;7.85;;
38693;SDS011;24447;43.460;25.744;2023-02-07T17:00:57;21.15;;;8.77;;
38693;SDS011;24447;43.460;25.744;2023-02-07T17:03:23;21.65;;;7.45;;
38693;SDS011;24447;43.460;25.744;2023-02-07T17:05:49;14.20;;;5.72;;
38693;SDS011;24447;43.460;25.744;2023-02-07T17:08:19;20.73;;;8.27;;
38693;SDS011;24447;43.460;25.744;2023-02-07T17:10:57;18.42;;;6.38;;
38693;SDS011;24447;43.460;25.744;2023-02-07T17:13:24;18.40;;;6.20;;
38693;SDS011;24447;43.460;25.744;2023-02-07T17:15:50;16.20;;;6.03;;